sensor_id;sensor_type;location;lat;lon;timestamp;P1;durP1;ratioP1;P2;durP2;ratioP2
31974;SDS011;18500;43.618;1.474;2023-05-14T00:00:10;718.60;;;669.53;;
31974;SDS011;18500;43.618;1.474;2023-05-14T00:02:37;730.20;;;680.42;;
31974;SDS011;18500;43.618;1.474;2023-05-14T00:05:03;684.17;;;636.60;;
31974;SDS011;18500;43.618;1.474;2023-05-14T00:07:29;716.30;;;668.67;;
31974;SDS011;18500;43.618;1.474;2023-05-14T00:09:58;718.70;;;670.67;;
31974;SDS011;18500;43.618;1.474;2023-05-14T00:12:24;671.17;;;627.33;;
31974;SDS011;18500;43.618;1.474;2023-05-14T00:14:50;614.55;;;571.53;;
31974;SDS011;18500;43.618;1.474;2023-05-14T00:17:17;720.15;;;671.67;;
31974;SDS011;18500;43.618;1.474;2023-05-14T00:19:42;643.95;;;600.38;;
31974;SDS011;18500;43.618;1.474;2023-05-14T00:22:08;707.72;;;660.22;;
31974;SDS011;18500;43.618;1.474;2023-05-14T00:24:34;700.28;;;653.10;;
31974;SDS011;18500;43.618;1.474;2023-05-14T00:27:00;691.78;;;633.92;;
31974;SDS011;18500;43.618;1.474;2023-05-14T00:29:26;684.88;;;639.35;;
31974;SDS011;18500;43.618;1.474;2023-05-14T00:31:52;709.92;;;662.22;;
31974;SDS011;18500;43.618;1.474;2023-05-14T00:34:17;674.00;;;630.38;;
31974;SDS011;18500;43.618;1.474;2023-05-14T00:36:43;668.42;;;624.95;;
31974;SDS011;18500;43.618;1.474;2023-05-14T00:39:09;701.40;;;653.17;;
31974;SDS011;18500;43.618;1.474;2023-05-14T00:41:34;696.92;;;650.35;;
31974;SDS011;18500;43.618;1.474;2023-05-14T00:44:01;748.38;;;696.60;;
31974;SDS011;18500;43.618;1.474;2023-05-14T00:46:27;707.33;;;659.65;;
31974;SDS011;18500;43.618;1.474;2023-05-14T00:48:53;638.58;;;594.60;;
31974;SDS011;18500;43.618;1.474;2023-05-14T00:51:19;721.35;;;672.53;;
31974;SDS011;18500;43.618;1.474;2023-05-14T00:53:45;589.88;;;550.40;;
31974;SDS011;18500;43.618;1.474;2023-05-14T00:56:11;678.47;;;633.58;;
31974;SDS011;18500;43.618;1.474;2023-05-14T00:58:38;680.83;;;635.33;;
31974;SDS011;18500;43.618;1.474;2023-05-14T01:01:03;689.25;;;642.50;;
31974;SDS011;18500;43.618;1.474;2023-05-14T01:03:29;734.20;;;684.38;;
31974;SDS011;18500;43.618;1.474;2023-05-14T01:11:28;717.67;;;668.22;;
31974;SDS011;18500;43.618;1.474;2023-05-14T01:16:51;720.78;;;671.05;;
31974;SDS011;18500;43.618;1.474;2023-05-14T01:19:36;712.30;;;663.38;;
31974;SDS011;18500;43.618;1.474;2023-05-14T01:22:09;716.33;;;667.20;;
31974;SDS011;18500;43.618;1.474;2023-05-14T01:24:35;679.33;;;631.00;;
31974;SDS011;18500;43.618;1.474;2023-05-14T01:29:51;676.97;;;630.22;;
31974;SDS011;18500;43.618;1.474;2023-05-14T01:32:23;717.50;;;668.55;;
31974;SDS011;18500;43.618;1.474;2023-05-14T01:34:50;721.75;;;672.20;;
31974;SDS011;18500;43.618;1.474;2023-05-14T01:37:17;708.47;;;660.65;;
31974;SDS011;18500;43.618;1.474;2023-05-14T01:39:43;747.92;;;696.55;;
31974;SDS011;18500;43.618;1.474;2023-05-14T01:42:09;709.75;;;659.95;;
31974;SDS011;18500;43.618;1.474;2023-05-14T01:44:35;779.90;;;725.25;;
31974;SDS011;18500;43.618;1.474;2023-05-14T01:47:01;717.53;;;668.38;;
31974;SDS011;18500;43.618;1.474;2023-05-14T01:49:27;734.50;;;683.72;;
31974;SDS011;18500;43.618;1.474;2023-05-14T01:51:53;709.97;;;660.35;;
31974;SDS011;18500;43.618;1.474;2023-05-14T01:54:18;687.63;;;641.00;;
31974;SDS011;18500;43.618;1.474;2023-05-14T01:56:44;683.75;;;637.92;;
31974;SDS011;18500;43.618;1.474;2023-05-14T01:59:09;718.65;;;665.05;;
31974;SDS011;18500;43.618;1.474;2023-05-14T02:01:35;681.15;;;635.30;;
31974;SDS011;18500;43.618;1.474;2023-05-14T02:04:01;802.42;;;741.13;;
31974;SDS011;18500;43.618;1.474;2023-05-14T02:06:26;692.85;;;646.20;;
31974;SDS011;18500;43.618;1.474;2023-05-14T02:08:52;669.35;;;623.60;;
31974;SDS011;18500;43.618;1.474;2023-05-14T02:11:17;739.40;;;688.58;;
31974;SDS011;18500;43.618;1.474;2023-05-14T02:13:43;746.08;;;694.17;;
31974;SDS011;18500;43.618;1.474;2023-05-14T02:16:09;711.25;;;663.15;;
31974;SDS011;18500;43.618;1.474;2023-05-14T02:18:34;674.78;;;630.38;;
31974;SDS011;18500;43.618;1.474;2023-05-14T02:21:00;721.22;;;672.70;;
31974;SDS011;18500;43.618;1.474;2023-05-14T02:23:26;687.90;;;641.10;;
31974;SDS011;18500;43.618;1.474;2023-05-14T02:25:51;696.92;;;650.33;;
31974;SDS011;18500;43.618;1.474;2023-05-14T02:28:17;753.35;;;700.47;;
31974;SDS011;18500;43.618;1.474;2023-05-14T02:30:43;692.25;;;644.70;;
31974;SDS011;18500;43.618;1.474;2023-05-14T02:33:08;704.20;;;656.78;;
31974;SDS011;18500;43.618;1.474;2023-05-14T02:35:34;707.92;;;660.13;;
31974;SDS011;18500;43.618;1.474;2023-05-14T02:38:00;690.00;;;643.65;;
31974;SDS011;18500;43.618;1.474;2023-05-14T02:40:25;723.17;;;674.00;;
31974;SDS011;18500;43.618;1.474;2023-05-14T02:42:51;708.22;;;659.97;;
31974;SDS011;18500;43.618;1.474;2023-05-14T02:45:17;699.42;;;651.55;;
31974;SDS011;18500;43.618;1.474;2023-05-14T02:47:42;724.63;;;674.95;;
31974;SDS011;18500;43.618;1.474;2023-05-14T02:50:08;691.05;;;644.28;;
31974;SDS011;18500;43.618;1.474;2023-05-14T02:52:34;710.80;;;662.90;;
31974;SDS011;18500;43.618;1.474;2023-05-14T02:55:00;724.85;;;675.15;;
31974;SDS011;18500;43.618;1.474;2023-05-14T02:57:26;712.75;;;663.85;;
31974;SDS011;18500;43.618;1.474;2023-05-14T02:59:52;691.83;;;644.42;;
31974;SDS011;18500;43.618;1.474;2023-05-14T03:02:17;722.95;;;673.63;;
31974;SDS011;18500;43.618;1.474;2023-05-14T03:04:43;709.35;;;660.65;;
31974;SDS011;18500;43.618;1.474;2023-05-14T03:07:09;683.53;;;637.20;;
31974;SDS011;18500;43.618;1.474;2023-05-14T03:09:34;733.15;;;682.85;;
31974;SDS011;18500;43.618;1.474;2023-05-14T03:12:00;700.22;;;652.42;;
31974;SDS011;18500;43.618;1.474;2023-05-14T03:14:26;710.72;;;661.42;;
31974;SDS011;18500;43.618;1.474;2023-05-14T03:16:51;764.25;;;712.15;;
31974;SDS011;18500;43.618;1.474;2023-05-14T03:19:17;742.63;;;691.63;;
31974;SDS011;18500;43.618;1.474;2023-05-14T03:21:42;723.72;;;674.67;;
31974;SDS011;18500;43.618;1.474;2023-05-14T03:24:08;726.47;;;677.53;;
31974;SDS011;18500;43.618;1.474;2023-05-14T03:26:34;636.72;;;592.08;;
31974;SDS011;18500;43.618;1.474;2023-05-14T03:29:00;726.45;;;677.38;;
31974;SDS011;18500;43.618;1.474;2023-05-14T03:31:27;718.90;;;670.40;;
31974;SDS011;18500;43.618;1.474;2023-05-14T03:33:52;674.28;;;629.33;;
31974;SDS011;18500;43.618;1.474;2023-05-14T03:36:18;696.35;;;649.30;;
31974;SDS011;18500;43.618;1.474;2023-05-14T03:38:44;684.45;;;636.95;;
31974;SDS011;18500;43.618;1.474;2023-05-14T03:41:09;703.22;;;656.42;;
31974;SDS011;18500;43.618;1.474;2023-05-14T03:43:35;724.30;;;675.60;;
31974;SDS011;18500;43.618;1.474;2023-05-14T03:46:01;743.28;;;691.70;;
31974;SDS011;18500;43.618;1.474;2023-05-14T03:48:26;638.65;;;594.97;;
31974;SDS011;18500;43.618;1.474;2023-05-14T03:50:52;725.42;;;676.13;;
31974;SDS011;18500;43.618;1.474;2023-05-14T03:53:17;722.20;;;673.10;;
31974;SDS011;18500;43.618;1.474;2023-05-14T03:55:43;648.88;;;604.05;;
31974;SDS011;18500;43.618;1.474;2023-05-14T03:58:09;755.13;;;703.25;;
31974;SDS011;18500;43.618;1.474;2023-05-14T04:00:39;695.75;;;647.78;;
31974;SDS011;18500;43.618;1.474;2023-05-14T04:03:05;735.45;;;685.20;;
31974;SDS011;18500;43.618;1.474;2023-05-14T04:05:31;732.72;;;682.70;;
31974;SDS011;18500;43.618;1.474;2023-05-14T04:07:57;700.80;;;653.42;;
31974;SDS011;18500;43.618;1.474;2023-05-14T04:10:22;754.42;;;702.20;;
31974;SDS011;18500;43.618;1.474;2023-05-14T04:12:48;725.65;;;676.33;;
31974;SDS011;18500;43.618;1.474;2023-05-14T04:15:14;682.03;;;636.67;;
31974;SDS011;18500;43.618;1.474;2023-05-14T04:17:39;714.75;;;666.85;;
31974;SDS011;18500;43.618;1.474;2023-05-14T04:20:05;699.28;;;651.75;;
31974;SDS011;18500;43.618;1.474;2023-05-14T04:22:31;715.90;;;665.40;;
31974;SDS011;18500;43.618;1.474;2023-05-14T04:24:57;652.80;;;608.63;;
31974;SDS011;18500;43.618;1.474;2023-05-14T04:27:23;767.85;;;713.67;;
31974;SDS011;18500;43.618;1.474;2023-05-14T04:29:48;713.72;;;665.72;;
31974;SDS011;18500;43.618;1.474;2023-05-14T04:32:14;708.03;;;658.15;;
31974;SDS011;18500;43.618;1.474;2023-05-14T04:34:40;689.40;;;642.45;;
31974;SDS011;18500;43.618;1.474;2023-05-14T04:37:06;741.10;;;690.30;;
31974;SDS011;18500;43.618;1.474;2023-05-14T04:39:32;733.97;;;684.05;;
31974;SDS011;18500;43.618;1.474;2023-05-14T04:41:57;745.38;;;693.83;;
31974;SDS011;18500;43.618;1.474;2023-05-14T04:44:23;743.78;;;693.72;;
31974;SDS011;18500;43.618;1.474;2023-05-14T04:46:48;751.75;;;700.72;;
31974;SDS011;18500;43.618;1.474;2023-05-14T04:49:14;755.25;;;702.92;;
31974;SDS011;18500;43.618;1.474;2023-05-14T04:51:40;727.28;;;677.85;;
31974;SDS011;18500;43.618;1.474;2023-05-14T04:54:05;767.38;;;714.83;;
31974;SDS011;18500;43.618;1.474;2023-05-14T04:56:31;708.28;;;660.17;;
31974;SDS011;18500;43.618;1.474;2023-05-14T04:58:57;733.28;;;683.67;;
31974;SDS011;18500;43.618;1.474;2023-05-14T05:01:22;729.38;;;679.72;;
31974;SDS011;18500;43.618;1.474;2023-05-14T05:03:48;754.95;;;702.05;;
31974;SDS011;18500;43.618;1.474;2023-05-14T05:06:14;718.20;;;669.78;;
31974;SDS011;18500;43.618;1.474;2023-05-14T05:08:40;720.78;;;672.47;;
31974;SDS011;18500;43.618;1.474;2023-05-14T05:11:06;722.65;;;674.38;;
31974;SDS011;18500;43.618;1.474;2023-05-14T05:13:31;722.90;;;673.63;;
31974;SDS011;18500;43.618;1.474;2023-05-14T05:15:57;721.40;;;672.20;;
31974;SDS011;18500;43.618;1.474;2023-05-14T05:18:23;735.17;;;685.67;;
31974;SDS011;18500;43.618;1.474;2023-05-14T05:20:48;704.63;;;656.60;;
31974;SDS011;18500;43.618;1.474;2023-05-14T05:23:14;712.95;;;663.25;;
31974;SDS011;18500;43.618;1.474;2023-05-14T05:25:40;755.08;;;703.08;;
31974;SDS011;18500;43.618;1.474;2023-05-14T05:28:05;710.45;;;662.38;;
31974;SDS011;18500;43.618;1.474;2023-05-14T05:30:31;699.70;;;653.38;;
31974;SDS011;18500;43.618;1.474;2023-05-14T05:32:57;712.63;;;664.28;;
31974;SDS011;18500;43.618;1.474;2023-05-14T05:35:23;751.75;;;699.92;;
31974;SDS011;18500;43.618;1.474;2023-05-14T05:37:48;697.45;;;650.67;;
31974;SDS011;18500;43.618;1.474;2023-05-14T05:40:14;711.20;;;663.65;;
31974;SDS011;18500;43.618;1.474;2023-05-14T05:42:40;757.70;;;705.30;;
31974;SDS011;18500;43.618;1.474;2023-05-14T05:45:06;707.90;;;658.55;;
31974;SDS011;18500;43.618;1.474;2023-05-14T05:47:32;733.72;;;683.97;;
31974;SDS011;18500;43.618;1.474;2023-05-14T05:49:58;768.15;;;715.13;;
31974;SDS011;18500;43.618;1.474;2023-05-14T05:52:23;736.45;;;686.50;;
31974;SDS011;18500;43.618;1.474;2023-05-14T05:54:49;741.80;;;691.67;;
31974;SDS011;18500;43.618;1.474;2023-05-14T05:57:15;733.08;;;682.47;;
31974;SDS011;18500;43.618;1.474;2023-05-14T05:59:40;744.80;;;693.25;;
31974;SDS011;18500;43.618;1.474;2023-05-14T06:02:06;755.90;;;704.50;;
31974;SDS011;18500;43.618;1.474;2023-05-14T06:04:32;729.78;;;680.30;;
31974;SDS011;18500;43.618;1.474;2023-05-14T06:06:58;771.92;;;719.03;;
31974;SDS011;18500;43.618;1.474;2023-05-14T06:09:23;761.35;;;709.03;;
31974;SDS011;18500;43.618;1.474;2023-05-14T06:11:49;749.80;;;697.95;;
31974;SDS011;18500;43.618;1.474;2023-05-14T06:14:15;720.97;;;672.15;;
31974;SDS011;18500;43.618;1.474;2023-05-14T06:16:40;593.05;;;551.50;;
31974;SDS011;18500;43.618;1.474;2023-05-14T06:19:06;745.22;;;694.28;;
31974;SDS011;18500;43.618;1.474;2023-05-14T06:21:32;736.92;;;686.40;;
31974;SDS011;18500;43.618;1.474;2023-05-14T06:23:58;748.22;;;696.42;;
31974;SDS011;18500;43.618;1.474;2023-05-14T06:26:23;592.80;;;549.08;;
31974;SDS011;18500;43.618;1.474;2023-05-14T06:28:50;729.30;;;678.40;;
31974;SDS011;18500;43.618;1.474;2023-05-14T06:31:16;743.08;;;692.22;;
31974;SDS011;18500;43.618;1.474;2023-05-14T06:33:43;753.45;;;701.25;;
31974;SDS011;18500;43.618;1.474;2023-05-14T06:36:09;779.33;;;725.00;;
31974;SDS011;18500;43.618;1.474;2023-05-14T06:38:35;771.78;;;717.92;;
31974;SDS011;18500;43.618;1.474;2023-05-14T06:41:00;743.78;;;693.17;;
31974;SDS011;18500;43.618;1.474;2023-05-14T06:43:26;754.25;;;703.00;;
31974;SDS011;18500;43.618;1.474;2023-05-14T06:45:52;745.67;;;694.45;;
31974;SDS011;18500;43.618;1.474;2023-05-14T06:48:18;760.67;;;708.65;;
31974;SDS011;18500;43.618;1.474;2023-05-14T06:50:44;740.80;;;690.85;;
31974;SDS011;18500;43.618;1.474;2023-05-14T06:53:10;741.50;;;690.67;;
31974;SDS011;18500;43.618;1.474;2023-05-14T06:55:36;704.92;;;654.30;;
31974;SDS011;18500;43.618;1.474;2023-05-14T06:58:02;719.20;;;668.95;;
31974;SDS011;18500;43.618;1.474;2023-05-14T07:00:30;719.05;;;669.53;;
31974;SDS011;18500;43.618;1.474;2023-05-14T07:02:56;744.55;;;693.40;;
31974;SDS011;18500;43.618;1.474;2023-05-14T07:05:21;704.65;;;656.08;;
31974;SDS011;18500;43.618;1.474;2023-05-14T07:07:47;747.92;;;695.67;;
31974;SDS011;18500;43.618;1.474;2023-05-14T07:10:13;770.72;;;717.28;;
31974;SDS011;18500;43.618;1.474;2023-05-14T07:12:39;724.08;;;674.08;;
31974;SDS011;18500;43.618;1.474;2023-05-14T07:15:04;754.70;;;701.88;;
31974;SDS011;18500;43.618;1.474;2023-05-14T07:17:31;716.50;;;667.55;;
31974;SDS011;18500;43.618;1.474;2023-05-14T07:19:56;755.22;;;702.38;;
31974;SDS011;18500;43.618;1.474;2023-05-14T07:22:22;764.13;;;710.13;;
31974;SDS011;18500;43.618;1.474;2023-05-14T07:24:47;748.13;;;694.92;;
31974;SDS011;18500;43.618;1.474;2023-05-14T07:27:14;640.20;;;585.03;;
31974;SDS011;18500;43.618;1.474;2023-05-14T07:29:41;684.47;;;635.55;;
31974;SDS011;18500;43.618;1.474;2023-05-14T07:32:06;752.25;;;699.22;;
31974;SDS011;18500;43.618;1.474;2023-05-14T07:34:32;738.65;;;687.58;;
31974;SDS011;18500;43.618;1.474;2023-05-14T07:36:58;756.03;;;704.08;;
31974;SDS011;18500;43.618;1.474;2023-05-14T07:39:24;776.80;;;721.47;;
31974;SDS011;18500;43.618;1.474;2023-05-14T07:41:50;808.83;;;750.78;;
31974;SDS011;18500;43.618;1.474;2023-05-14T07:44:15;673.10;;;623.40;;
31974;SDS011;18500;43.618;1.474;2023-05-14T07:46:41;613.13;;;568.47;;
31974;SDS011;18500;43.618;1.474;2023-05-14T07:49:06;435.75;;;404.52;;
31974;SDS011;18500;43.618;1.474;2023-05-14T07:51:32;697.53;;;647.35;;
31974;SDS011;18500;43.618;1.474;2023-05-14T07:53:58;786.33;;;727.80;;
31974;SDS011;18500;43.618;1.474;2023-05-14T07:56:23;631.35;;;586.90;;
31974;SDS011;18500;43.618;1.474;2023-05-14T07:58:49;636.25;;;590.63;;
31974;SDS011;18500;43.618;1.474;2023-05-14T08:01:15;690.42;;;641.55;;
31974;SDS011;18500;43.618;1.474;2023-05-14T08:03:42;572.20;;;534.10;;
31974;SDS011;18500;43.618;1.474;2023-05-14T08:06:07;513.95;;;480.50;;
31974;SDS011;18500;43.618;1.474;2023-05-14T08:08:33;520.33;;;483.83;;
31974;SDS011;18500;43.618;1.474;2023-05-14T08:11:02;608.45;;;566.28;;
31974;SDS011;18500;43.618;1.474;2023-05-14T08:13:27;711.08;;;660.90;;
31974;SDS011;18500;43.618;1.474;2023-05-14T08:15:53;633.42;;;589.17;;
31974;SDS011;18500;43.618;1.474;2023-05-14T08:18:19;482.33;;;449.35;;
31974;SDS011;18500;43.618;1.474;2023-05-14T08:20:45;560.75;;;523.45;;
31974;SDS011;18500;43.618;1.474;2023-05-14T08:23:12;593.40;;;552.67;;
31974;SDS011;18500;43.618;1.474;2023-05-14T08:25:38;663.97;;;616.38;;
31974;SDS011;18500;43.618;1.474;2023-05-14T08:28:03;575.58;;;535.35;;
31974;SDS011;18500;43.618;1.474;2023-05-14T08:30:29;600.72;;;559.17;;
31974;SDS011;18500;43.618;1.474;2023-05-14T08:32:55;686.58;;;637.35;;
31974;SDS011;18500;43.618;1.474;2023-05-14T08:35:22;629.13;;;584.72;;
31974;SDS011;18500;43.618;1.474;2023-05-14T08:37:47;526.50;;;491.45;;
31974;SDS011;18500;43.618;1.474;2023-05-14T08:40:14;515.90;;;481.90;;
31974;SDS011;18500;43.618;1.474;2023-05-14T08:42:40;570.67;;;532.72;;
31974;SDS011;18500;43.618;1.474;2023-05-14T08:45:28;446.13;;;415.60;;
31974;SDS011;18500;43.618;1.474;2023-05-14T08:47:54;498.33;;;465.95;;
31974;SDS011;18500;43.618;1.474;2023-05-14T08:50:20;447.17;;;418.85;;
31974;SDS011;18500;43.618;1.474;2023-05-14T08:52:46;536.70;;;500.70;;
31974;SDS011;18500;43.618;1.474;2023-05-14T08:55:12;638.85;;;593.70;;
31974;SDS011;18500;43.618;1.474;2023-05-14T08:57:39;663.00;;;616.55;;
31974;SDS011;18500;43.618;1.474;2023-05-14T09:00:05;607.42;;;564.88;;
31974;SDS011;18500;43.618;1.474;2023-05-14T09:02:38;711.17;;;658.92;;
31974;SDS011;18500;43.618;1.474;2023-05-14T09:05:04;618.40;;;576.97;;
31974;SDS011;18500;43.618;1.474;2023-05-14T09:07:31;627.20;;;585.83;;
31974;SDS011;18500;43.618;1.474;2023-05-14T09:09:57;607.35;;;566.80;;
31974;SDS011;18500;43.618;1.474;2023-05-14T09:12:23;527.25;;;492.17;;
31974;SDS011;18500;43.618;1.474;2023-05-14T09:14:49;380.77;;;355.77;;
31974;SDS011;18500;43.618;1.474;2023-05-14T09:17:15;335.85;;;314.30;;
31974;SDS011;18500;43.618;1.474;2023-05-14T09:19:42;273.02;;;256.73;;
31974;SDS011;18500;43.618;1.474;2023-05-14T09:22:11;310.85;;;290.52;;
31974;SDS011;18500;43.618;1.474;2023-05-14T09:24:38;435.48;;;406.63;;
31974;SDS011;18500;43.618;1.474;2023-05-14T09:27:04;360.80;;;339.05;;
31974;SDS011;18500;43.618;1.474;2023-05-14T09:29:31;439.85;;;411.92;;
31974;SDS011;18500;43.618;1.474;2023-05-14T09:31:57;391.42;;;367.00;;
31974;SDS011;18500;43.618;1.474;2023-05-14T09:36:55;377.63;;;351.35;;
31974;SDS011;18500;43.618;1.474;2023-05-14T09:39:22;301.48;;;282.88;;
31974;SDS011;18500;43.618;1.474;2023-05-14T09:41:49;476.48;;;442.73;;
31974;SDS011;18500;43.618;1.474;2023-05-14T09:44:18;407.02;;;381.27;;
31974;SDS011;18500;43.618;1.474;2023-05-14T09:46:45;419.60;;;392.48;;
31974;SDS011;18500;43.618;1.474;2023-05-14T09:49:11;383.08;;;358.38;;
31974;SDS011;18500;43.618;1.474;2023-05-14T09:51:37;541.78;;;501.20;;
31974;SDS011;18500;43.618;1.474;2023-05-14T09:54:03;794.10;;;723.58;;
31974;SDS011;18500;43.618;1.474;2023-05-14T09:56:30;772.88;;;706.40;;
31974;SDS011;18500;43.618;1.474;2023-05-14T09:58:56;691.95;;;637.72;;
31974;SDS011;18500;43.618;1.474;2023-05-14T10:01:22;905.20;;;820.20;;
31974;SDS011;18500;43.618;1.474;2023-05-14T10:03:49;1016.33;;;909.20;;
31974;SDS011;18500;43.618;1.474;2023-05-14T10:06:18;1157.65;;;999.90;;
31974;SDS011;18500;43.618;1.474;2023-05-14T10:08:52;1188.03;;;995.08;;
31974;SDS011;18500;43.618;1.474;2023-05-14T10:11:21;984.80;;;884.05;;
31974;SDS011;18500;43.618;1.474;2023-05-14T10:16:34;880.65;;;795.60;;
31974;SDS011;18500;43.618;1.474;2023-05-14T10:19:07;1077.43;;;961.67;;
31974;SDS011;18500;43.618;1.474;2023-05-14T10:21:35;1191.05;;;999.90;;
31974;SDS011;18500;43.618;1.474;2023-05-14T10:24:02;1064.68;;;947.10;;
31974;SDS011;18500;43.618;1.474;2023-05-14T10:26:29;1215.35;;;999.90;;
31974;SDS011;18500;43.618;1.474;2023-05-14T10:28:56;1106.63;;;989.92;;
31974;SDS011;18500;43.618;1.474;2023-05-14T10:31:43;1400.47;;;999.90;;
31974;SDS011;18500;43.618;1.474;2023-05-14T10:34:29;1311.40;;;999.90;;
31974;SDS011;18500;43.618;1.474;2023-05-14T10:37:01;1139.13;;;997.45;;
31974;SDS011;18500;43.618;1.474;2023-05-14T10:42:23;1185.60;;;999.90;;
31974;SDS011;18500;43.618;1.474;2023-05-14T10:44:55;1242.07;;;999.90;;
31974;SDS011;18500;43.618;1.474;2023-05-14T10:47:28;1080.93;;;963.03;;
31974;SDS011;18500;43.618;1.474;2023-05-14T10:49:56;1081.78;;;965.63;;
31974;SDS011;18500;43.618;1.474;2023-05-14T10:52:23;1245.13;;;999.90;;
31974;SDS011;18500;43.618;1.474;2023-05-14T10:55:11;1327.30;;;999.90;;
31974;SDS011;18500;43.618;1.474;2023-05-14T10:57:41;1028.90;;;920.33;;
31974;SDS011;18500;43.618;1.474;2023-05-14T11:00:08;1236.93;;;999.90;;
31974;SDS011;18500;43.618;1.474;2023-05-14T11:02:44;1115.82;;;991.72;;
31974;SDS011;18500;43.618;1.474;2023-05-14T11:05:11;1185.18;;;999.90;;
31974;SDS011;18500;43.618;1.474;2023-05-14T11:07:40;1210.10;;;999.90;;
31974;SDS011;18500;43.618;1.474;2023-05-14T11:12:44;1181.22;;;999.90;;
31974;SDS011;18500;43.618;1.474;2023-05-14T11:15:16;956.13;;;858.95;;
31974;SDS011;18500;43.618;1.474;2023-05-14T11:17:44;990.40;;;892.08;;
31974;SDS011;18500;43.618;1.474;2023-05-14T11:20:11;819.00;;;741.15;;
31974;SDS011;18500;43.618;1.474;2023-05-14T11:22:38;988.47;;;887.80;;
31974;SDS011;18500;43.618;1.474;2023-05-14T11:25:05;942.78;;;852.97;;
31974;SDS011;18500;43.618;1.474;2023-05-14T11:27:33;1049.65;;;940.40;;
31974;SDS011;18500;43.618;1.474;2023-05-14T11:30:01;1281.35;;;999.90;;
31974;SDS011;18500;43.618;1.474;2023-05-14T11:32:28;1237.97;;;999.90;;
31974;SDS011;18500;43.618;1.474;2023-05-14T11:34:55;985.95;;;881.95;;
31974;SDS011;18500;43.618;1.474;2023-05-14T11:37:21;940.72;;;851.00;;
31974;SDS011;18500;43.618;1.474;2023-05-14T11:42:13;1137.28;;;940.13;;
31974;SDS011;18500;43.618;1.474;2023-05-14T11:44:41;1132.03;;;999.90;;
31974;SDS011;18500;43.618;1.474;2023-05-14T11:47:08;1001.03;;;892.92;;
31974;SDS011;18500;43.618;1.474;2023-05-14T11:49:35;1136.00;;;951.30;;
31974;SDS011;18500;43.618;1.474;2023-05-14T11:52:02;1080.70;;;965.38;;
31974;SDS011;18500;43.618;1.474;2023-05-14T11:54:30;1065.05;;;933.35;;
31974;SDS011;18500;43.618;1.474;2023-05-14T11:56:57;1249.07;;;999.90;;
31974;SDS011;18500;43.618;1.474;2023-05-14T11:59:28;1156.32;;;999.90;;
31974;SDS011;18500;43.618;1.474;2023-05-14T12:01:55;1021.10;;;916.43;;
31974;SDS011;18500;43.618;1.474;2023-05-14T12:04:25;1103.53;;;972.53;;
31974;SDS011;18500;43.618;1.474;2023-05-14T12:06:52;1237.22;;;999.90;;
31974;SDS011;18500;43.618;1.474;2023-05-14T12:09:19;1118.35;;;993.90;;
31974;SDS011;18500;43.618;1.474;2023-05-14T12:11:46;1245.20;;;999.90;;
31974;SDS011;18500;43.618;1.474;2023-05-14T12:14:19;1348.43;;;999.58;;
31974;SDS011;18500;43.618;1.474;2023-05-14T12:16:46;1129.75;;;998.10;;
31974;SDS011;18500;43.618;1.474;2023-05-14T12:19:13;1117.35;;;950.13;;
31974;SDS011;18500;43.618;1.474;2023-05-14T12:21:44;998.17;;;898.90;;
31974;SDS011;18500;43.618;1.474;2023-05-14T12:24:12;1023.88;;;922.80;;
31974;SDS011;18500;43.618;1.474;2023-05-14T12:26:43;1143.95;;;999.90;;
31974;SDS011;18500;43.618;1.474;2023-05-14T12:29:11;1269.68;;;969.53;;
31974;SDS011;18500;43.618;1.474;2023-05-14T12:31:37;1326.60;;;999.90;;
31974;SDS011;18500;43.618;1.474;2023-05-14T12:34:09;1255.82;;;974.90;;
31974;SDS011;18500;43.618;1.474;2023-05-14T12:36:35;1532.75;;;999.90;;
31974;SDS011;18500;43.618;1.474;2023-05-14T12:39:01;1266.10;;;951.60;;
31974;SDS011;18500;43.618;1.474;2023-05-14T12:41:28;1749.82;;;999.90;;
31974;SDS011;18500;43.618;1.474;2023-05-14T12:43:55;1912.20;;;999.90;;
31974;SDS011;18500;43.618;1.474;2023-05-14T12:46:20;1751.43;;;999.90;;
31974;SDS011;18500;43.618;1.474;2023-05-14T12:48:46;1756.32;;;999.90;;
31974;SDS011;18500;43.618;1.474;2023-05-14T12:51:12;1663.88;;;999.90;;
31974;SDS011;18500;43.618;1.474;2023-05-14T12:53:38;1823.30;;;999.90;;
31974;SDS011;18500;43.618;1.474;2023-05-14T12:56:04;1999.90;;;999.90;;
31974;SDS011;18500;43.618;1.474;2023-05-14T12:58:30;1821.43;;;999.90;;
31974;SDS011;18500;43.618;1.474;2023-05-14T13:00:56;1999.90;;;999.90;;
31974;SDS011;18500;43.618;1.474;2023-05-14T13:03:22;1999.90;;;999.90;;
31974;SDS011;18500;43.618;1.474;2023-05-14T13:05:47;1999.90;;;999.90;;
31974;SDS011;18500;43.618;1.474;2023-05-14T13:08:14;1360.22;;;999.90;;
31974;SDS011;18500;43.618;1.474;2023-05-14T13:10:42;1999.90;;;999.90;;
31974;SDS011;18500;43.618;1.474;2023-05-14T13:13:08;1483.22;;;999.90;;
31974;SDS011;18500;43.618;1.474;2023-05-14T13:15:35;1488.63;;;999.90;;
31974;SDS011;18500;43.618;1.474;2023-05-14T13:18:01;1999.90;;;999.90;;
31974;SDS011;18500;43.618;1.474;2023-05-14T13:20:27;1502.65;;;999.90;;
31974;SDS011;18500;43.618;1.474;2023-05-14T13:22:55;1999.90;;;999.90;;
31974;SDS011;18500;43.618;1.474;2023-05-14T13:25:21;1999.90;;;999.90;;
31974;SDS011;18500;43.618;1.474;2023-05-14T13:27:47;1999.90;;;999.90;;
31974;SDS011;18500;43.618;1.474;2023-05-14T13:30:16;1999.90;;;999.90;;
31974;SDS011;18500;43.618;1.474;2023-05-14T13:32:42;1999.90;;;999.90;;
31974;SDS011;18500;43.618;1.474;2023-05-14T13:35:08;1141.65;;;880.38;;
31974;SDS011;18500;43.618;1.474;2023-05-14T13:37:34;1523.97;;;999.90;;
31974;SDS011;18500;43.618;1.474;2023-05-14T13:40:00;1656.85;;;999.90;;
31974;SDS011;18500;43.618;1.474;2023-05-14T13:42:26;1356.85;;;999.90;;
31974;SDS011;18500;43.618;1.474;2023-05-14T13:44:51;1857.55;;;999.90;;
31974;SDS011;18500;43.618;1.474;2023-05-14T13:47:17;1951.82;;;999.90;;
31974;SDS011;18500;43.618;1.474;2023-05-14T13:49:42;1541.97;;;999.90;;
31974;SDS011;18500;43.618;1.474;2023-05-14T13:52:08;1654.93;;;999.90;;
31974;SDS011;18500;43.618;1.474;2023-05-14T13:54:34;1166.28;;;999.90;;
31974;SDS011;18500;43.618;1.474;2023-05-14T13:57:00;1999.90;;;999.90;;
31974;SDS011;18500;43.618;1.474;2023-05-14T13:59:25;1999.90;;;999.90;;
31974;SDS011;18500;43.618;1.474;2023-05-14T14:01:51;1613.18;;;999.90;;
31974;SDS011;18500;43.618;1.474;2023-05-14T14:04:17;1331.80;;;992.22;;
31974;SDS011;18500;43.618;1.474;2023-05-14T14:06:43;1660.97;;;999.90;;
31974;SDS011;18500;43.618;1.474;2023-05-14T14:09:09;1999.90;;;999.90;;
31974;SDS011;18500;43.618;1.474;2023-05-14T14:11:37;1999.90;;;999.90;;
31974;SDS011;18500;43.618;1.474;2023-05-14T14:14:03;1999.90;;;999.90;;